No particular awareness of the weather is required.    There are no Weather-warnings


Meteo18 Weather Cam more information Meteo18 Weather Cam


Thunder radar more information blitzortung!


Rain radar more information rain snow radar


Visit our other weather sites:

Template documentation
and downloads

And another site



Weather Underground History page Text

Daily Summary for March 23, 2017 Units:  English    Metric   Both
« Previous Day
Next Day »
Daily Weekly Monthly Yearly Custom
  High: Low: Average:
Temperature: 48 °F 38.8 °F 43.3 °F
Dew Point: 44.1 °F 36.5 °F 40.6 °F
Humidity: 94 % 85 % 90 %
Wind Speed: 9 mph 0 mph 1.5 mph
Wind Gust: 13 mph - -
Wind:- - South
Pressure: 30.1 in 29.7 in -
Precipitation: 0.09 in    
Historical Graphs
 
 
Tabular Data for March 23, 2017
Time Temperature Dew Point Pressure Wind Wind Speed Wind Gust Humidity Rainfall Rate (Hourly)
00:02 43.7 °F 40.1 °F 29.8 in Calm   1 mph 87 % 0 in
00:12 43.9 °F 40.6 °F 29.8 in Calm   1 mph 88 % 0 in
00:17 43.9 °F 40.6 °F 29.8 in Calm   1 mph 88 % 0 in
00:22 43.5 °F 40.3 °F 29.8 in East 1 mph 1 mph 88 % 0 in
00:27 43.3 °F 40.3 °F 29.8 in ENE 1 mph 1 mph 89 % 0 in
00:32 43.3 °F 40.3 °F 29.8 in ENE 2 mph 2 mph 89 % 0 in
00:37 43.5 °F 40.5 °F 29.8 in ENE 1 mph 2 mph 89 % 0 in
00:42 43.3 °F 40.1 °F 29.8 in ENE 2 mph 3 mph 88 % 0 in
00:52 43 °F 39.7 °F 29.8 in Calm   3 mph 88 % 0 in
00:57 42.6 °F 39.4 °F 29.8 in Calm   3 mph 88 % 0 in
01:02 42.4 °F 39.2 °F 29.8 in Calm   3 mph 88 % 0 in
01:07 42.3 °F 39 °F 29.8 in Calm   1 mph 88 % 0 in
01:12 42.3 °F 39 °F 29.8 in Calm   1 mph 88 % 0 in
01:17 42.3 °F 39 °F 29.8 in Calm     88 % 0 in
01:22 42.1 °F 38.8 °F 29.8 in Calm     88 % 0 in
01:32 41.5 °F 38.5 °F 29.8 in Calm     89 % 0 in
01:37 41.4 °F 38.3 °F 29.8 in Calm     89 % 0 in
01:42 41.4 °F 38.7 °F 29.8 in Calm     90 % 0 in
01:47 41.4 °F 38.3 °F 29.8 in Calm     89 % 0 in
01:52 41.5 °F 38.5 °F 29.8 in NNE 2 mph   89 % 0 in
02:02 41.4 °F 38.3 °F 29.8 in Calm   3 mph 89 % 0 in
02:07 41.4 °F 38.3 °F 29.8 in North 1 mph 3 mph 89 % 0 in
02:12 41.4 °F 38.3 °F 29.8 in Calm   3 mph 89 % 0 in
02:17 41 °F 37.9 °F 29.8 in North 1 mph 1 mph 89 % 0 in
02:22 40.6 °F 37.6 °F 29.8 in NW 2 mph 2 mph 89 % 0 in
02:27 40.5 °F 37.8 °F 29.8 in NW 1 mph 2 mph 90 % 0 in
02:32 40.6 °F 37.9 °F 29.8 in NNE 2 mph 2 mph 90 % 0 in
02:37 40.5 °F 37.8 °F 29.8 in Calm   2 mph 90 % 0 in
02:42 40.5 °F 37.8 °F 29.8 in Calm   2 mph 90 % 0 in
02:47 39.9 °F 36.9 °F 29.8 in WNW 1 mph 2 mph 89 % 0 in
02:52 39.6 °F 36.9 °F 29.8 in Calm   2 mph 90 % 0 in
02:57 39.2 °F 36.5 °F 29.8 in NNE 1 mph 2 mph 90 % 0 in
03:02 38.8 °F 36.5 °F 29.8 in Calm   2 mph 91 % 0 in
03:07 38.8 °F 36.7 °F 29.8 in North 2 mph 4 mph 92 % 0 in
03:12 39 °F 36.9 °F 29.8 in NNE 2 mph 4 mph 92 % 0 in
03:17 39.4 °F 37 °F 29.8 in NNW 1 mph 4 mph 91 % 0 in
03:22 39.4 °F 37 °F 29.8 in North 2 mph 4 mph 91 % 0 in
03:32 39.7 °F 37 °F 29.7 in Calm   4 mph 90 % 0 in
03:42 39.7 °F 37 °F 29.8 in NNE 2 mph 4 mph 90 % 0 in
03:47 40.3 °F 37.2 °F 29.7 in NE 1 mph 3 mph 89 % 0 in
03:52 40.5 °F 37.2 °F 29.7 in ENE 2 mph 3 mph 88 % 0 in
03:57 40.3 °F 37 °F 29.7 in NE 1 mph 4 mph 88 % 0 in
04:02 39.9 °F 36.7 °F 29.7 in NE 4 mph 4 mph 88 % 0 in
04:07 39.9 °F 36.7 °F 29.7 in NE 3 mph 5 mph 88 % 0 in
04:12 39.7 °F 36.5 °F 29.7 in NNE 2 mph 5 mph 88 % 0 in
04:17 39.6 °F 36.5 °F 29.7 in Calm   5 mph 89 % 0 in
04:22 39.7 °F 36.7 °F 29.7 in Calm   5 mph 89 % 0 in
04:27 39.7 °F 36.5 °F 29.7 in NE 2 mph 4 mph 88 % 0 in
04:32 39.7 °F 36.7 °F 29.7 in NNE 3 mph 4 mph 89 % 0 in
04:42 40.3 °F 37 °F 29.7 in NNE 3 mph 4 mph 88 % 0 in
04:47 40.5 °F 37.2 °F 29.7 in NNE 4 mph 4 mph 88 % 0 in
04:52 40.3 °F 36.7 °F 29.7 in Calm   4 mph 87 % 0 in
04:57 39.9 °F 36.7 °F 29.7 in NE 4 mph 4 mph 88 % 0 in
05:02 40.3 °F 37 °F 29.7 in NE 2 mph 4 mph 88 % 0 in
05:12 40.5 °F 36.9 °F 29.7 in NE 2 mph 4 mph 87 % 0 in
05:17 40.6 °F 37 °F 29.7 in NE 3 mph 3 mph 87 % 0 in
05:22 40.5 °F 36.9 °F 29.7 in NNE 2 mph 3 mph 87 % 0 in
05:32 40.3 °F 36.7 °F 29.7 in Calm   4 mph 87 % 0 in
05:42 40.3 °F 37 °F 29.7 in Calm   4 mph 88 % 0 in
05:52 40.3 °F 37 °F 29.7 in Calm   4 mph 88 % 0 in
06:02 40.5 °F 37.2 °F 29.7 in Calm   1 mph 88 % 0 in
06:12 40.6 °F 37.4 °F 29.7 in WSW 4 mph 4 mph 88 % 0 in
06:17 40.6 °F 37.4 °F 29.7 in Calm   4 mph 88 % 0 in
06:22 40.6 °F 37.4 °F 29.7 in Calm   4 mph 88 % 0 in
06:27 40.6 °F 37.6 °F 29.7 in Calm   4 mph 89 % 0 in
06:32 40.6 °F 37.6 °F 29.7 in SSW 1 mph 4 mph 89 % 0 in
06:37 40.8 °F 38.1 °F 29.7 in SSW 1 mph 3 mph 90 % 0 in
06:42 41 °F 38.3 °F 29.7 in WSW 1 mph 3 mph 90 % 0 in
06:47 41.4 °F 38.3 °F 29.7 in SSW 1 mph 5 mph 89 % 0 in
06:52 41.4 °F 38.3 °F 29.7 in South 1 mph 5 mph 89 % 0 in
07:02 41.2 °F 38.5 °F 29.7 in SSW 2 mph 5 mph 90 % 0 in
07:12 41 °F 38.7 °F 29.7 in Calm   2 mph 91 % 0 in
07:17 41.2 °F 38.8 °F 29.7 in SSE 1 mph 2 mph 91 % 0 in
07:22 41.4 °F 39 °F 29.7 in Calm   2 mph 91 % 0 in
07:32 41.5 °F 39.2 °F 29.8 in Calm   1 mph 91 % 0 in
07:37 41.5 °F 39.2 °F 29.8 in Calm   1 mph 91 % 0 in
07:42 41.5 °F 39.2 °F 29.8 in Calm   1 mph 91 % 0 in
07:47 41.5 °F 39.2 °F 29.8 in Calm   1 mph 91 % 0 in
07:52 41.5 °F 39.2 °F 29.8 in Calm     91 % 0.01 in
07:57 41.5 °F 39.4 °F 29.8 in SW 1 mph   92 % 0.01 in
08:02 41.7 °F 39.6 °F 29.8 in SW 1 mph 2 mph 92 % 0.01 in
08:07 41.7 °F 39.6 °F 29.8 in Calm   2 mph 92 % 0.01 in
08:12 41.7 °F 39.6 °F 29.8 in SSW 1 mph 3 mph 92 % 0.01 in
08:17 41.9 °F 39.7 °F 29.8 in South 4 mph 4 mph 92 % 0.01 in
08:22 41.9 °F 40.1 °F 29.8 in SSW 1 mph 5 mph 93 % 0.01 in
08:27 41.9 °F 40.1 °F 29.8 in Calm   5 mph 93 % 0.01 in
08:32 41.9 °F 40.1 °F 29.8 in Calm   5 mph 93 % 0.02 in
08:42 41.7 °F 39.9 °F 29.8 in Calm   1 mph 93 % 0.02 in
08:47 41.9 °F 40.1 °F 29.8 in Calm   1 mph 93 % 0.02 in
08:52 41.9 °F 40.1 °F 29.8 in SE 1 mph 1 mph 93 % 0.01 in
09:02 42.4 °F 40.6 °F 29.8 in Calm   1 mph 93 % 0.01 in
09:07 42.3 °F 40.5 °F 29.8 in SE 1 mph 1 mph 93 % 0.01 in
09:12 42.6 °F 41 °F 29.8 in SE 1 mph 2 mph 94 % 0.02 in
09:17 43.3 °F 41.5 °F 29.8 in SE 1 mph 2 mph 93 % 0.02 in
09:22 43.5 °F 41.7 °F 29.8 in SSW 1 mph 2 mph 93 % 0.02 in
09:27 44.2 °F 42.1 °F 29.8 in SSW 1 mph 2 mph 92 % 0.02 in
09:32 44.6 °F 42.1 °F 29.8 in SW 1 mph 3 mph 91 % 0.01 in
09:37 44.8 °F 42.1 °F 29.8 in SSE 1 mph 3 mph 90 % 0.01 in
09:42 45 °F 42.3 °F 29.8 in Calm   2 mph 90 % 0.01 in
09:47 44.8 °F 41.7 °F 29.8 in Calm   2 mph 89 % 0.01 in
09:52 45 °F 42.3 °F 29.8 in Calm   2 mph 90 % 0.01 in
09:57 45.1 °F 42.1 °F 29.8 in Calm   2 mph 89 % 0.01 in
10:02 45.1 °F 42.1 °F 29.8 in SW 1 mph 2 mph 89 % 0.01 in
10:07 45 °F 41.9 °F 29.8 in SSW 3 mph 3 mph 89 % 0.01 in
10:12 44.8 °F 42.1 °F 29.8 in SW 7 mph 7 mph 90 % 0 in
10:17 44.2 °F 41.5 °F 29.8 in WSW 6 mph 6 mph 90 % 0 in
10:22 44.1 °F 41.5 °F 29.8 in SSW 6 mph 12 mph 91 % 0 in
10:27 44.1 °F 41.5 °F 29.8 in SW 7 mph 12 mph 91 % 0 in
10:32 44.1 °F 41.5 °F 29.8 in WSW 7 mph 12 mph 91 % 0 in
10:37 44.1 °F 41.5 °F 29.8 in SW 6 mph 12 mph 91 % 0 in
10:42 43.9 °F 41.4 °F 29.8 in Calm   8 mph 91 % 0 in
10:47 43.9 °F 41.4 °F 29.8 in WSW 2 mph 8 mph 91 % 0 in
10:52 43.9 °F 41.4 °F 29.8 in WSW 1 mph 7 mph 91 % 0 in
10:57 43.9 °F 41.4 °F 29.8 in WSW 3 mph 7 mph 91 % 0 in
11:02 43.9 °F 41.4 °F 29.8 in Calm   3 mph 91 % 0 in
11:07 43.9 °F 41.4 °F 29.8 in Calm   3 mph 91 % 0 in
11:12 44.1 °F 41.5 °F 29.8 in SW 1 mph 3 mph 91 % 0 in
11:17 44.1 °F 41.5 °F 29.8 in West 2 mph 3 mph 91 % 0 in
11:27 44.2 °F 42.1 °F 29.8 in WSW 3 mph 3 mph 92 % 0 in
11:32 44.4 °F 42.3 °F 29.8 in WSW 4 mph 5 mph 92 % 0 in
11:37 44.4 °F 41.9 °F 29.8 in WSW 7 mph 7 mph 91 % 0 in
11:42 44.4 °F 42.3 °F 29.8 in WSW 3 mph 7 mph 92 % 0 in
11:52 44.2 °F 41.7 °F 29.8 in SW 2 mph 7 mph 91 % 0 in
11:57 44.4 °F 42.3 °F 29.8 in WSW 1 mph 7 mph 92 % 0 in
12:02 44.4 °F 41.9 °F 29.8 in WSW 2 mph 5 mph 91 % 0 in
12:07 44.6 °F 42.1 °F 29.8 in West 1 mph 5 mph 91 % 0 in
12:12 44.8 °F 42.3 °F 29.8 in West 1 mph 4 mph 91 % 0 in
12:17 44.8 °F 42.1 °F 29.8 in West 3 mph 4 mph 90 % 0 in
12:22 44.6 °F 41.9 °F 29.8 in West 2 mph 5 mph 90 % 0 in
12:32 44.8 °F 42.1 °F 29.8 in West 1 mph 5 mph 90 % 0 in
12:37 44.8 °F 42.1 °F 29.8 in WNW 1 mph 5 mph 90 % 0 in
12:42 45.1 °F 42.4 °F 29.8 in West 2 mph 4 mph 90 % 0.01 in
12:47 45.5 °F 42.8 °F 29.8 in Calm   4 mph 90 % 0.01 in
12:52 46 °F 43 °F 29.8 in Calm   5 mph 89 % 0.01 in
12:57 46.2 °F 42.8 °F 29.8 in SE 1 mph 5 mph 88 % 0.01 in
13:02 46.8 °F 43.3 °F 29.8 in NE 2 mph 5 mph 88 % 0.01 in
13:12 47.5 °F 43.9 °F 29.8 in Calm   2 mph 87 % 0.01 in
13:17 47.5 °F 43.9 °F 29.8 in NNE 1 mph 3 mph 87 % 0.01 in
13:22 47.7 °F 44.1 °F 29.8 in Calm   3 mph 87 % 0.01 in
13:32 48 °F 44.1 °F 29.8 in Calm   1 mph 86 % 0.01 in
13:37 47.7 °F 43.3 °F 29.8 in Calm     85 % 0 in
13:42 47.7 °F 43.3 °F 29.8 in SW 3 mph   85 % 0 in
13:47 47.5 °F 43.5 °F 29.8 in Calm   4 mph 86 % 0 in
13:52 47.5 °F 43.2 °F 29.8 in SSW 4 mph 4 mph 85 % 0 in
13:57 47.3 °F 43.3 °F 29.8 in South 1 mph 7 mph 86 % 0 in
14:02 47.1 °F 43.2 °F 29.8 in SSW 2 mph 7 mph 86 % 0 in
14:07 46.8 °F 43.2 °F 29.8 in SSW 3 mph 7 mph 87 % 0.01 in
14:12 46.8 °F 43.2 °F 29.8 in SSW 2 mph 7 mph 87 % 0.01 in
14:17 46.6 °F 43 °F 29.8 in South 1 mph 6 mph 87 % 0.01 in
14:22 46.6 °F 42.6 °F 29.8 in SSE 2 mph 6 mph 86 % 0.01 in
14:27 46.6 °F 43 °F 29.8 in SSW 5 mph 7 mph 87 % 0.01 in
14:32 46.4 °F 42.8 °F 29.8 in SSW 7 mph 7 mph 87 % 0.01 in
14:37 46.4 °F 43 °F 29.8 in SSW 7 mph 8 mph 88 % 0.01 in
14:42 46 °F 43 °F 29.8 in SW 6 mph 8 mph 89 % 0.01 in
14:52 45.3 °F 42.8 °F 29.8 in SSW 5 mph 12 mph 91 % 0.02 in
15:02 45.1 °F 43 °F 29.8 in WSW 3 mph 12 mph 92 % 0.04 in
15:07 45.3 °F 43.3 °F 29.8 in WSW 3 mph 8 mph 93 % 0.05 in
15:12 45.3 °F 42.8 °F 29.8 in WSW 7 mph 8 mph 91 % 0.05 in
15:22 45.1 °F 43 °F 29.8 in WSW 3 mph 12 mph 92 % 0.05 in
15:27 45.3 °F 43.2 °F 29.8 in SW 4 mph 13 mph 92 % 0.06 in
15:32 45.7 °F 43.5 °F 29.8 in WSW 2 mph 13 mph 92 % 0.06 in
15:42 45.7 °F 43.2 °F 29.8 in WSW 7 mph 11 mph 91 % 0.06 in
15:47 45.7 °F 43.2 °F 29.8 in West 7 mph 11 mph 91 % 0.04 in
15:52 45.1 °F 42.1 °F 29.8 in West 9 mph 11 mph 89 % 0.04 in
16:02 45.1 °F 42.1 °F 29.8 in West 8 mph 13 mph 89 % 0.02 in
16:12 45.7 °F 42.6 °F 29.8 in West 6 mph 13 mph 89 % 0.01 in
16:17 45.7 °F 42.3 °F 29.9 in SW 6 mph 9 mph 88 % 0.01 in
16:32 45.7 °F 41.7 °F 29.9 in West 4 mph 9 mph 86 % 0 in
16:37 45.7 °F 41.7 °F 29.9 in WSW 1 mph 9 mph 86 % 0 in
16:42 45.7 °F 41.7 °F 29.9 in West 5 mph 9 mph 86 % 0 in
16:47 45.7 °F 41.7 °F 29.9 in WSW 5 mph 8 mph 86 % 0 in
16:52 45.5 °F 41.5 °F 29.9 in WSW 3 mph 8 mph 86 % 0 in
16:57 45.3 °F 41.4 °F 29.9 in WSW 4 mph 7 mph 86 % 0 in
17:02 45.3 °F 41.7 °F 29.9 in WSW 1 mph 7 mph 87 % 0 in
17:12 45.3 °F 41.7 °F 29.9 in SW 2 mph 6 mph 87 % 0 in
17:17 45.3 °F 41.7 °F 29.9 in Calm   3 mph 87 % 0 in
17:22 45.3 °F 41.9 °F 29.9 in Calm   3 mph 88 % 0 in
17:32 45.5 °F 42.1 °F 29.9 in Calm   3 mph 88 % 0 in
17:42 45.3 °F 41.9 °F 29.9 in Calm   3 mph 88 % 0 in
17:47 45.3 °F 41.9 °F 29.9 in Calm   3 mph 88 % 0 in
17:52 45.3 °F 42.3 °F 29.9 in ESE 1 mph 3 mph 89 % 0 in
17:57 45.3 °F 42.3 °F 29.9 in Calm   2 mph 89 % 0 in
18:02 45.3 °F 42.3 °F 29.9 in Calm   2 mph 89 % 0 in
18:12 45.1 °F 42.4 °F 29.9 in Calm   2 mph 90 % 0 in
18:17 45.1 °F 42.4 °F 29.9 in ESE 3 mph 3 mph 90 % 0 in
18:22 45.1 °F 42.4 °F 29.9 in Calm   3 mph 90 % 0 in
18:27 45 °F 42.3 °F 29.9 in Calm   3 mph 90 % 0 in
18:32 45 °F 42.3 °F 29.9 in SE 1 mph 3 mph 90 % 0 in
18:37 45 °F 42.3 °F 29.9 in Calm   3 mph 90 % 0 in
18:42 45 °F 42.3 °F 29.9 in Calm   3 mph 90 % 0 in
18:47 44.8 °F 42.1 °F 29.9 in Calm   3 mph 90 % 0 in
18:57 44.8 °F 42.3 °F 29.9 in Calm   2 mph 91 % 0 in
19:02 44.6 °F 42.1 °F 29.9 in Calm   2 mph 91 % 0 in
19:12 44.4 °F 41.9 °F 29.9 in Calm   2 mph 91 % 0 in
19:17 44.4 °F 42.3 °F 29.9 in Calm   2 mph 92 % 0 in
19:22 44.2 °F 42.1 °F 29.9 in Calm   2 mph 92 % 0 in
19:32 44.2 °F 42.1 °F 29.9 in Calm   1 mph 92 % 0 in
19:37 44.2 °F 42.1 °F 29.9 in Calm   1 mph 92 % 0 in
19:42 44.2 °F 42.3 °F 29.9 in SW 2 mph 2 mph 93 % 0 in
19:52 44.2 °F 42.3 °F 30 in SSW 1 mph 3 mph 93 % 0 in
19:57 44.2 °F 42.3 °F 30 in SW 2 mph 3 mph 93 % 0 in
20:02 44.2 °F 42.3 °F 30 in SSW 2 mph 3 mph 93 % 0 in
20:07 44.2 °F 42.3 °F 30 in SSW 3 mph 4 mph 93 % 0 in
20:12 44.2 °F 42.3 °F 30 in SSW 2 mph 4 mph 93 % 0 in
20:17 44.2 °F 42.3 °F 30 in SSW 1 mph 5 mph 93 % 0 in
20:22 44.1 °F 42.1 °F 30 in SSW 1 mph 5 mph 93 % 0 in
20:27 44.1 °F 42.1 °F 30 in Calm   4 mph 93 % 0 in
20:37 44.1 °F 41.9 °F 30 in Calm   4 mph 92 % 0 in
20:42 44.1 °F 42.1 °F 30 in South 1 mph 4 mph 93 % 0 in
20:52 44.1 °F 42.1 °F 30 in Calm   4 mph 93 % 0 in
20:57 44.1 °F 42.1 °F 30 in Calm   2 mph 93 % 0 in
21:02 43.9 °F 41.9 °F 30 in South 1 mph 2 mph 93 % 0 in
21:12 43.9 °F 41.9 °F 30 in Calm   2 mph 93 % 0 in
21:17 43.7 °F 41.7 °F 30 in SSW 1 mph 2 mph 93 % 0 in
21:22 43.7 °F 41.7 °F 30 in Calm   2 mph 93 % 0 in
21:27 43.7 °F 41.7 °F 30 in SW 1 mph 2 mph 93 % 0 in
21:32 43.7 °F 41.7 °F 30 in SSW 1 mph 2 mph 93 % 0 in
21:42 43.7 °F 41.7 °F 30 in Calm   3 mph 93 % 0 in
21:52 43.7 °F 41.7 °F 30 in SW 3 mph 3 mph 93 % 0 in
21:57 43.7 °F 41.7 °F 30 in Calm   4 mph 93 % 0 in
22:02 43.5 °F 41.7 °F 30 in Calm   4 mph 93 % 0 in
22:07 43.5 °F 41.7 °F 30 in SSW 1 mph 3 mph 93 % 0 in
22:17 43.5 °F 41.4 °F 30 in SSW 1 mph 2 mph 92 % 0 in
22:22 43.3 °F 41.2 °F 30 in Calm   2 mph 92 % 0 in
22:27 43.3 °F 41.2 °F 30 in Calm   1 mph 92 % 0 in
22:32 43.2 °F 41 °F 30 in SW 1 mph 1 mph 92 % 0 in
22:42 43.2 °F 41.4 °F 30 in West 1 mph 2 mph 93 % 0 in
22:52 43.2 °F 41 °F 30 in Calm   2 mph 92 % 0 in
22:57 43 °F 40.8 °F 30 in Calm   1 mph 92 % 0 in
23:02 43 °F 40.8 °F 30 in Calm   1 mph 92 % 0 in
23:12 42.6 °F 40.8 °F 30.1 in Calm     93 % 0 in
23:17 42.6 °F 40.8 °F 30.1 in Calm   1 mph 93 % 0 in
23:22 42.4 °F 40.6 °F 30.1 in Calm   1 mph 93 % 0 in
23:32 42.1 °F 40.3 °F 30.1 in ENE 1 mph 2 mph 93 % 0 in
23:37 41.7 °F 39.9 °F 30.1 in Calm   2 mph 93 % 0 in
23:42 41.7 °F 40.1 °F 30.1 in East 2 mph 2 mph 94 % 0 in
23:52 41.5 °F 39.7 °F 30.1 in Calm   2 mph 93 % 0 in
23:57 41.2 °F 39.4 °F 30.1 in Calm   2 mph 93 % 0 in
Meteo18
Compliments of Weather Underground - 4 mb

Script developed by  Jim McMurry - jmcmurry@mwt.net Adapted for the template by  Wim van der Kuil - Leuven-Template.eu

You find our weather info also at:

European Weather Network

Weather Underground

Equipment we use:

Weather-station
Davis Vue

Weather-program
Meteohub

Weather-server
Raspberry PI 2 B+

Provider
1 and 1

Davis Vue

Meteohub

Raspberry PI 2 B+

1 and 1